sensor_id;sensor_type;location;lat;lon;timestamp;P1;durP1;ratioP1;P2;durP2;ratioP2
13855;SDS011;6998;53.608;9.958;2022-09-17T00:00:34;22.15;;;4.45;;
13855;SDS011;6998;53.608;9.958;2022-09-17T00:03:03;19.02;;;4.22;;
13855;SDS011;6998;53.608;9.958;2022-09-17T00:05:30;26.25;;;4.82;;
13855;SDS011;6998;53.608;9.958;2022-09-17T00:07:57;23.63;;;5.00;;
13855;SDS011;6998;53.608;9.958;2022-09-17T00:10:24;26.42;;;4.75;;
13855;SDS011;6998;53.608;9.958;2022-09-17T00:12:50;25.85;;;4.57;;
13855;SDS011;6998;53.608;9.958;2022-09-17T00:15:17;28.80;;;4.40;;
13855;SDS011;6998;53.608;9.958;2022-09-17T00:17:45;22.98;;;4.07;;
13855;SDS011;6998;53.608;9.958;2022-09-17T00:20:12;20.30;;;4.20;;
13855;SDS011;6998;53.608;9.958;2022-09-17T00:22:38;19.90;;;3.92;;
13855;SDS011;6998;53.608;9.958;2022-09-17T00:25:06;18.55;;;3.95;;
13855;SDS011;6998;53.608;9.958;2022-09-17T00:27:33;18.58;;;3.80;;
13855;SDS011;6998;53.608;9.958;2022-09-17T00:30:00;19.98;;;4.18;;
13855;SDS011;6998;53.608;9.958;2022-09-17T00:32:27;17.05;;;3.78;;
13855;SDS011;6998;53.608;9.958;2022-09-17T00:34:55;22.50;;;4.20;;
13855;SDS011;6998;53.608;9.958;2022-09-17T00:37:22;22.08;;;4.13;;
13855;SDS011;6998;53.608;9.958;2022-09-17T00:39:48;23.20;;;4.95;;
13855;SDS011;6998;53.608;9.958;2022-09-17T00:42:15;24.88;;;4.55;;
13855;SDS011;6998;53.608;9.958;2022-09-17T00:44:45;20.90;;;4.90;;
13855;SDS011;6998;53.608;9.958;2022-09-17T00:47:16;18.52;;;4.05;;
13855;SDS011;6998;53.608;9.958;2022-09-17T00:49:47;22.38;;;4.45;;
13855;SDS011;6998;53.608;9.958;2022-09-17T00:52:19;17.63;;;3.90;;
13855;SDS011;6998;53.608;9.958;2022-09-17T00:54:51;23.45;;;3.75;;
13855;SDS011;6998;53.608;9.958;2022-09-17T00:57:21;18.70;;;3.88;;
13855;SDS011;6998;53.608;9.958;2022-09-17T00:59:48;20.80;;;4.00;;
13855;SDS011;6998;53.608;9.958;2022-09-17T01:02:16;22.60;;;4.15;;
13855;SDS011;6998;53.608;9.958;2022-09-17T01:04:43;22.75;;;4.53;;
13855;SDS011;6998;53.608;9.958;2022-09-17T01:07:11;17.35;;;3.90;;
13855;SDS011;6998;53.608;9.958;2022-09-17T01:09:52;17.15;;;4.03;;
13855;SDS011;6998;53.608;9.958;2022-09-17T01:12:34;20.52;;;4.18;;
13855;SDS011;6998;53.608;9.958;2022-09-17T01:15:14;23.05;;;4.15;;
13855;SDS011;6998;53.608;9.958;2022-09-17T01:17:50;23.05;;;3.83;;
13855;SDS011;6998;53.608;9.958;2022-09-17T01:23:47;17.35;;;3.55;;
13855;SDS011;6998;53.608;9.958;2022-09-17T01:26:57;16.00;;;3.38;;
13855;SDS011;6998;53.608;9.958;2022-09-17T01:29:54;16.15;;;3.70;;
13855;SDS011;6998;53.608;9.958;2022-09-17T01:32:38;18.55;;;3.53;;
13855;SDS011;6998;53.608;9.958;2022-09-17T01:35:12;21.63;;;3.67;;
13855;SDS011;6998;53.608;9.958;2022-09-17T01:37:46;18.50;;;3.63;;
13855;SDS011;6998;53.608;9.958;2022-09-17T01:40:20;13.68;;;3.40;;
13855;SDS011;6998;53.608;9.958;2022-09-17T01:42:53;17.20;;;3.67;;
13855;SDS011;6998;53.608;9.958;2022-09-17T01:45:24;19.75;;;3.78;;
13855;SDS011;6998;53.608;9.958;2022-09-17T01:47:57;22.60;;;4.20;;
13855;SDS011;6998;53.608;9.958;2022-09-17T01:50:30;20.40;;;3.83;;
13855;SDS011;6998;53.608;9.958;2022-09-17T01:53:02;18.10;;;3.20;;
13855;SDS011;6998;53.608;9.958;2022-09-17T01:55:32;21.80;;;3.92;;
13855;SDS011;6998;53.608;9.958;2022-09-17T01:58:03;14.20;;;3.88;;
13855;SDS011;6998;53.608;9.958;2022-09-17T02:00:35;18.80;;;3.50;;
13855;SDS011;6998;53.608;9.958;2022-09-17T02:03:08;16.30;;;3.65;;
13855;SDS011;6998;53.608;9.958;2022-09-17T02:05:42;16.23;;;3.67;;
13855;SDS011;6998;53.608;9.958;2022-09-17T02:08:13;23.08;;;4.10;;
13855;SDS011;6998;53.608;9.958;2022-09-17T02:10:45;16.33;;;3.65;;
13855;SDS011;6998;53.608;9.958;2022-09-17T02:13:18;16.88;;;4.00;;
13855;SDS011;6998;53.608;9.958;2022-09-17T02:15:48;16.08;;;3.28;;
13855;SDS011;6998;53.608;9.958;2022-09-17T02:18:23;17.05;;;3.00;;
13855;SDS011;6998;53.608;9.958;2022-09-17T02:20:53;15.02;;;3.22;;
13855;SDS011;6998;53.608;9.958;2022-09-17T02:23:28;20.17;;;3.83;;
13855;SDS011;6998;53.608;9.958;2022-09-17T02:26:00;21.58;;;3.60;;
13855;SDS011;6998;53.608;9.958;2022-09-17T02:28:32;18.90;;;3.42;;
13855;SDS011;6998;53.608;9.958;2022-09-17T02:31:06;16.20;;;3.70;;
13855;SDS011;6998;53.608;9.958;2022-09-17T02:33:34;17.58;;;4.15;;
13855;SDS011;6998;53.608;9.958;2022-09-17T02:36:03;15.80;;;3.80;;
13855;SDS011;6998;53.608;9.958;2022-09-17T02:38:30;19.02;;;3.50;;
13855;SDS011;6998;53.608;9.958;2022-09-17T02:40:59;14.60;;;3.70;;
13855;SDS011;6998;53.608;9.958;2022-09-17T02:43:32;19.33;;;4.28;;
13855;SDS011;6998;53.608;9.958;2022-09-17T02:46:11;16.08;;;3.45;;
13855;SDS011;6998;53.608;9.958;2022-09-17T02:49:01;18.60;;;3.60;;
13855;SDS011;6998;53.608;9.958;2022-09-17T02:51:37;21.73;;;3.72;;
13855;SDS011;6998;53.608;9.958;2022-09-17T02:54:15;23.20;;;4.20;;
13855;SDS011;6998;53.608;9.958;2022-09-17T02:56:48;16.02;;;3.65;;
13855;SDS011;6998;53.608;9.958;2022-09-17T02:59:23;23.35;;;4.30;;
13855;SDS011;6998;53.608;9.958;2022-09-17T03:01:55;22.45;;;3.85;;
13855;SDS011;6998;53.608;9.958;2022-09-17T03:04:29;21.35;;;3.92;;
13855;SDS011;6998;53.608;9.958;2022-09-17T03:06:57;13.23;;;2.95;;
13855;SDS011;6998;53.608;9.958;2022-09-17T03:09:24;13.35;;;3.20;;
13855;SDS011;6998;53.608;9.958;2022-09-17T03:11:50;15.48;;;2.97;;
13855;SDS011;6998;53.608;9.958;2022-09-17T03:14:17;14.18;;;3.50;;
13855;SDS011;6998;53.608;9.958;2022-09-17T03:16:44;20.38;;;3.40;;
13855;SDS011;6998;53.608;9.958;2022-09-17T03:19:11;13.13;;;3.42;;
13855;SDS011;6998;53.608;9.958;2022-09-17T03:21:39;20.30;;;3.60;;
13855;SDS011;6998;53.608;9.958;2022-09-17T03:24:06;23.30;;;3.97;;
13855;SDS011;6998;53.608;9.958;2022-09-17T03:26:34;21.10;;;3.28;;
13855;SDS011;6998;53.608;9.958;2022-09-17T03:29:02;16.52;;;3.88;;
13855;SDS011;6998;53.608;9.958;2022-09-17T03:31:29;14.32;;;3.78;;
13855;SDS011;6998;53.608;9.958;2022-09-17T03:33:56;16.45;;;3.50;;
13855;SDS011;6998;53.608;9.958;2022-09-17T03:36:23;16.90;;;3.15;;
13855;SDS011;6998;53.608;9.958;2022-09-17T03:38:53;17.98;;;3.10;;
13855;SDS011;6998;53.608;9.958;2022-09-17T03:41:20;11.95;;;2.78;;
13855;SDS011;6998;53.608;9.958;2022-09-17T03:43:47;12.00;;;2.80;;
13855;SDS011;6998;53.608;9.958;2022-09-17T03:46:13;18.40;;;3.15;;
13855;SDS011;6998;53.608;9.958;2022-09-17T03:48:40;16.23;;;3.47;;
13855;SDS011;6998;53.608;9.958;2022-09-17T03:51:07;16.70;;;3.63;;
13855;SDS011;6998;53.608;9.958;2022-09-17T03:53:33;14.80;;;2.83;;
13855;SDS011;6998;53.608;9.958;2022-09-17T03:56:02;14.23;;;3.40;;
13855;SDS011;6998;53.608;9.958;2022-09-17T03:58:30;12.45;;;3.17;;
13855;SDS011;6998;53.608;9.958;2022-09-17T04:00:57;13.50;;;3.38;;
13855;SDS011;6998;53.608;9.958;2022-09-17T04:03:25;16.23;;;3.53;;
13855;SDS011;6998;53.608;9.958;2022-09-17T04:05:53;13.35;;;3.03;;
13855;SDS011;6998;53.608;9.958;2022-09-17T04:08:20;16.10;;;2.90;;
13855;SDS011;6998;53.608;9.958;2022-09-17T04:10:47;11.07;;;2.78;;
13855;SDS011;6998;53.608;9.958;2022-09-17T04:13:17;13.75;;;3.08;;
13855;SDS011;6998;53.608;9.958;2022-09-17T04:15:45;12.15;;;3.15;;
13855;SDS011;6998;53.608;9.958;2022-09-17T04:18:12;19.52;;;2.80;;
13855;SDS011;6998;53.608;9.958;2022-09-17T04:20:39;12.38;;;2.72;;
13855;SDS011;6998;53.608;9.958;2022-09-17T04:23:07;11.52;;;2.50;;
13855;SDS011;6998;53.608;9.958;2022-09-17T04:25:35;11.93;;;2.92;;
13855;SDS011;6998;53.608;9.958;2022-09-17T04:28:02;11.00;;;3.00;;
13855;SDS011;6998;53.608;9.958;2022-09-17T04:30:30;13.43;;;3.33;;
13855;SDS011;6998;53.608;9.958;2022-09-17T04:32:57;14.05;;;3.03;;
13855;SDS011;6998;53.608;9.958;2022-09-17T04:35:23;16.38;;;2.95;;
13855;SDS011;6998;53.608;9.958;2022-09-17T04:37:51;17.45;;;3.13;;
13855;SDS011;6998;53.608;9.958;2022-09-17T04:40:18;10.45;;;2.60;;
13855;SDS011;6998;53.608;9.958;2022-09-17T04:42:45;15.98;;;3.22;;
13855;SDS011;6998;53.608;9.958;2022-09-17T04:45:11;15.95;;;3.03;;
13855;SDS011;6998;53.608;9.958;2022-09-17T04:47:40;17.30;;;3.70;;
13855;SDS011;6998;53.608;9.958;2022-09-17T04:50:07;10.43;;;3.15;;
13855;SDS011;6998;53.608;9.958;2022-09-17T04:52:35;11.20;;;2.92;;
13855;SDS011;6998;53.608;9.958;2022-09-17T04:55:02;14.32;;;3.08;;
13855;SDS011;6998;53.608;9.958;2022-09-17T04:57:29;14.60;;;3.20;;
13855;SDS011;6998;53.608;9.958;2022-09-17T04:59:56;15.70;;;3.00;;
13855;SDS011;6998;53.608;9.958;2022-09-17T05:02:22;17.25;;;3.25;;
13855;SDS011;6998;53.608;9.958;2022-09-17T05:04:51;12.70;;;2.80;;
13855;SDS011;6998;53.608;9.958;2022-09-17T05:07:17;15.75;;;2.50;;
13855;SDS011;6998;53.608;9.958;2022-09-17T05:09:44;14.43;;;3.10;;
13855;SDS011;6998;53.608;9.958;2022-09-17T05:12:11;11.40;;;2.70;;
13855;SDS011;6998;53.608;9.958;2022-09-17T05:14:37;11.77;;;3.22;;
13855;SDS011;6998;53.608;9.958;2022-09-17T05:17:04;14.77;;;2.92;;
13855;SDS011;6998;53.608;9.958;2022-09-17T05:19:31;13.90;;;2.65;;
13855;SDS011;6998;53.608;9.958;2022-09-17T05:21:59;13.63;;;2.70;;
13855;SDS011;6998;53.608;9.958;2022-09-17T05:24:26;13.73;;;3.10;;
13855;SDS011;6998;53.608;9.958;2022-09-17T05:26:52;16.83;;;3.20;;
13855;SDS011;6998;53.608;9.958;2022-09-17T05:29:19;17.60;;;2.80;;
13855;SDS011;6998;53.608;9.958;2022-09-17T05:31:46;19.15;;;3.45;;
13855;SDS011;6998;53.608;9.958;2022-09-17T05:34:12;13.80;;;2.95;;
13855;SDS011;6998;53.608;9.958;2022-09-17T05:36:39;12.98;;;3.15;;
13855;SDS011;6998;53.608;9.958;2022-09-17T05:39:08;22.98;;;3.50;;
13855;SDS011;6998;53.608;9.958;2022-09-17T05:41:34;16.60;;;3.08;;
13855;SDS011;6998;53.608;9.958;2022-09-17T05:44:01;16.40;;;2.97;;
13855;SDS011;6998;53.608;9.958;2022-09-17T05:46:28;21.05;;;2.97;;
13855;SDS011;6998;53.608;9.958;2022-09-17T05:48:55;12.48;;;2.97;;
13855;SDS011;6998;53.608;9.958;2022-09-17T05:51:22;20.67;;;3.45;;
13855;SDS011;6998;53.608;9.958;2022-09-17T05:53:48;14.77;;;3.35;;
13855;SDS011;6998;53.608;9.958;2022-09-17T05:56:16;19.05;;;3.45;;
13855;SDS011;6998;53.608;9.958;2022-09-17T05:58:43;17.20;;;2.88;;
13855;SDS011;6998;53.608;9.958;2022-09-17T06:01:10;16.85;;;3.22;;
13855;SDS011;6998;53.608;9.958;2022-09-17T06:03:40;14.90;;;3.15;;
13855;SDS011;6998;53.608;9.958;2022-09-17T06:06:06;18.98;;;3.30;;
13855;SDS011;6998;53.608;9.958;2022-09-17T06:08:34;14.23;;;3.00;;
13855;SDS011;6998;53.608;9.958;2022-09-17T06:11:02;17.92;;;3.03;;
13855;SDS011;6998;53.608;9.958;2022-09-17T06:13:31;10.55;;;2.58;;
13855;SDS011;6998;53.608;9.958;2022-09-17T06:15:59;17.80;;;3.35;;
13855;SDS011;6998;53.608;9.958;2022-09-17T06:18:28;20.42;;;3.45;;
13855;SDS011;6998;53.608;9.958;2022-09-17T06:20:56;12.98;;;2.83;;
13855;SDS011;6998;53.608;9.958;2022-09-17T06:23:24;11.10;;;2.78;;
13855;SDS011;6998;53.608;9.958;2022-09-17T06:25:51;14.80;;;2.78;;
13855;SDS011;6998;53.608;9.958;2022-09-17T06:28:19;14.75;;;2.70;;
13855;SDS011;6998;53.608;9.958;2022-09-17T06:30:47;13.93;;;2.58;;
13855;SDS011;6998;53.608;9.958;2022-09-17T06:33:16;14.63;;;2.88;;
13855;SDS011;6998;53.608;9.958;2022-09-17T06:35:43;10.95;;;2.40;;
13855;SDS011;6998;53.608;9.958;2022-09-17T06:38:10;13.52;;;2.97;;
13855;SDS011;6998;53.608;9.958;2022-09-17T06:40:37;14.18;;;2.45;;
13855;SDS011;6998;53.608;9.958;2022-09-17T06:43:03;17.90;;;2.90;;
13855;SDS011;6998;53.608;9.958;2022-09-17T06:45:30;9.63;;;2.30;;
13855;SDS011;6998;53.608;9.958;2022-09-17T06:47:58;11.60;;;2.75;;
13855;SDS011;6998;53.608;9.958;2022-09-17T06:50:29;8.10;;;2.40;;
13855;SDS011;6998;53.608;9.958;2022-09-17T06:52:56;10.75;;;2.38;;
13855;SDS011;6998;53.608;9.958;2022-09-17T06:55:22;9.63;;;2.42;;
13855;SDS011;6998;53.608;9.958;2022-09-17T06:57:49;10.90;;;2.78;;
13855;SDS011;6998;53.608;9.958;2022-09-17T07:00:16;9.05;;;2.38;;
13855;SDS011;6998;53.608;9.958;2022-09-17T07:02:43;8.65;;;1.70;;
13855;SDS011;6998;53.608;9.958;2022-09-17T07:05:21;8.88;;;1.90;;
13855;SDS011;6998;53.608;9.958;2022-09-17T07:07:48;8.60;;;2.00;;
13855;SDS011;6998;53.608;9.958;2022-09-17T07:10:15;9.07;;;1.85;;
13855;SDS011;6998;53.608;9.958;2022-09-17T07:12:42;7.55;;;1.75;;
13855;SDS011;6998;53.608;9.958;2022-09-17T07:15:09;5.55;;;1.50;;
13855;SDS011;6998;53.608;9.958;2022-09-17T07:17:38;4.80;;;1.95;;
13855;SDS011;6998;53.608;9.958;2022-09-17T07:20:05;7.15;;;1.70;;
13855;SDS011;6998;53.608;9.958;2022-09-17T07:22:34;9.30;;;2.00;;
13855;SDS011;6998;53.608;9.958;2022-09-17T07:25:01;4.82;;;1.38;;
13855;SDS011;6998;53.608;9.958;2022-09-17T07:27:28;8.00;;;1.70;;
13855;SDS011;6998;53.608;9.958;2022-09-17T07:29:56;5.28;;;1.45;;
13855;SDS011;6998;53.608;9.958;2022-09-17T07:32:23;6.78;;;1.58;;
13855;SDS011;6998;53.608;9.958;2022-09-17T07:34:50;5.65;;;1.30;;
13855;SDS011;6998;53.608;9.958;2022-09-17T07:37:17;6.18;;;1.50;;
13855;SDS011;6998;53.608;9.958;2022-09-17T07:39:46;6.95;;;1.42;;
13855;SDS011;6998;53.608;9.958;2022-09-17T07:42:13;7.97;;;1.45;;
13855;SDS011;6998;53.608;9.958;2022-09-17T07:44:40;7.05;;;1.77;;
13855;SDS011;6998;53.608;9.958;2022-09-17T07:47:06;8.90;;;1.90;;
13855;SDS011;6998;53.608;9.958;2022-09-17T07:49:34;7.05;;;1.70;;
13855;SDS011;6998;53.608;9.958;2022-09-17T07:52:00;9.02;;;1.90;;
13855;SDS011;6998;53.608;9.958;2022-09-17T07:54:30;6.88;;;1.42;;
13855;SDS011;6998;53.608;9.958;2022-09-17T07:56:59;5.10;;;1.70;;
13855;SDS011;6998;53.608;9.958;2022-09-17T07:59:26;9.43;;;2.42;;
13855;SDS011;6998;53.608;9.958;2022-09-17T08:01:53;7.43;;;1.70;;
13855;SDS011;6998;53.608;9.958;2022-09-17T08:04:20;7.28;;;1.70;;
13855;SDS011;6998;53.608;9.958;2022-09-17T08:06:47;8.65;;;1.92;;
13855;SDS011;6998;53.608;9.958;2022-09-17T08:09:14;8.90;;;2.20;;
13855;SDS011;6998;53.608;9.958;2022-09-17T08:11:42;6.43;;;1.80;;
13855;SDS011;6998;53.608;9.958;2022-09-17T08:14:12;8.65;;;2.03;;
13855;SDS011;6998;53.608;9.958;2022-09-17T08:16:40;6.43;;;1.90;;
13855;SDS011;6998;53.608;9.958;2022-09-17T08:19:07;10.38;;;2.47;;
13855;SDS011;6998;53.608;9.958;2022-09-17T08:21:34;7.13;;;1.60;;
13855;SDS011;6998;53.608;9.958;2022-09-17T08:24:01;8.82;;;1.90;;
13855;SDS011;6998;53.608;9.958;2022-09-17T08:26:28;9.70;;;1.83;;
13855;SDS011;6998;53.608;9.958;2022-09-17T08:28:55;10.82;;;1.92;;
13855;SDS011;6998;53.608;9.958;2022-09-17T08:31:24;10.73;;;2.33;;
13855;SDS011;6998;53.608;9.958;2022-09-17T08:33:52;9.95;;;2.03;;
13855;SDS011;6998;53.608;9.958;2022-09-17T08:36:19;10.07;;;2.25;;
13855;SDS011;6998;53.608;9.958;2022-09-17T08:38:46;10.68;;;2.28;;
13855;SDS011;6998;53.608;9.958;2022-09-17T08:41:19;9.73;;;1.98;;
13855;SDS011;6998;53.608;9.958;2022-09-17T08:44:01;11.27;;;2.28;;
13855;SDS011;6998;53.608;9.958;2022-09-17T08:46:38;9.77;;;2.00;;
13855;SDS011;6998;53.608;9.958;2022-09-17T08:49:11;6.57;;;1.88;;
13855;SDS011;6998;53.608;9.958;2022-09-17T08:51:47;10.30;;;1.77;;
13855;SDS011;6998;53.608;9.958;2022-09-17T08:54:25;8.88;;;2.03;;
13855;SDS011;6998;53.608;9.958;2022-09-17T08:57:06;7.97;;;1.40;;
13855;SDS011;6998;53.608;9.958;2022-09-17T08:59:42;7.88;;;1.67;;
13855;SDS011;6998;53.608;9.958;2022-09-17T09:02:16;4.45;;;1.38;;
13855;SDS011;6998;53.608;9.958;2022-09-17T09:04:57;4.85;;;1.48;;
13855;SDS011;6998;53.608;9.958;2022-09-17T09:07:33;6.95;;;1.65;;
13855;SDS011;6998;53.608;9.958;2022-09-17T09:10:10;4.10;;;0.98;;
13855;SDS011;6998;53.608;9.958;2022-09-17T09:12:40;6.72;;;1.45;;
13855;SDS011;6998;53.608;9.958;2022-09-17T09:15:14;5.70;;;1.20;;
13855;SDS011;6998;53.608;9.958;2022-09-17T09:17:50;5.20;;;1.30;;
13855;SDS011;6998;53.608;9.958;2022-09-17T09:20:19;4.38;;;1.02;;
13855;SDS011;6998;53.608;9.958;2022-09-17T09:22:53;4.65;;;1.10;;
13855;SDS011;6998;53.608;9.958;2022-09-17T09:25:22;3.15;;;1.08;;
13855;SDS011;6998;53.608;9.958;2022-09-17T09:27:57;4.38;;;1.38;;
13855;SDS011;6998;53.608;9.958;2022-09-17T09:30:34;4.07;;;1.00;;
13855;SDS011;6998;53.608;9.958;2022-09-17T09:33:10;2.80;;;0.70;;
13855;SDS011;6998;53.608;9.958;2022-09-17T09:35:40;4.45;;;0.80;;
13855;SDS011;6998;53.608;9.958;2022-09-17T09:38:11;3.85;;;0.95;;
13855;SDS011;6998;53.608;9.958;2022-09-17T09:40:43;3.50;;;0.82;;
13855;SDS011;6998;53.608;9.958;2022-09-17T09:43:18;3.10;;;1.00;;
13855;SDS011;6998;53.608;9.958;2022-09-17T09:48:56;4.03;;;0.93;;
13855;SDS011;6998;53.608;9.958;2022-09-17T09:51:34;1.38;;;0.50;;
13855;SDS011;6998;53.608;9.958;2022-09-17T09:54:17;1.80;;;0.63;;
13855;SDS011;6998;53.608;9.958;2022-09-17T09:56:54;1.58;;;0.90;;
13855;SDS011;6998;53.608;9.958;2022-09-17T09:59:22;2.20;;;0.75;;
13855;SDS011;6998;53.608;9.958;2022-09-17T10:01:49;3.10;;;1.10;;
13855;SDS011;6998;53.608;9.958;2022-09-17T10:04:19;1.95;;;0.80;;
13855;SDS011;6998;53.608;9.958;2022-09-17T10:06:48;4.32;;;0.95;;
13855;SDS011;6998;53.608;9.958;2022-09-17T10:09:18;2.78;;;1.00;;
13855;SDS011;6998;53.608;9.958;2022-09-17T10:11:59;4.00;;;1.02;;
13855;SDS011;6998;53.608;9.958;2022-09-17T10:14:28;3.55;;;1.13;;
13855;SDS011;6998;53.608;9.958;2022-09-17T10:17:15;3.40;;;0.85;;
13855;SDS011;6998;53.608;9.958;2022-09-17T10:19:47;3.47;;;0.90;;
13855;SDS011;6998;53.608;9.958;2022-09-17T10:22:39;6.00;;;1.17;;
13855;SDS011;6998;53.608;9.958;2022-09-17T10:25:17;3.60;;;1.00;;
13855;SDS011;6998;53.608;9.958;2022-09-17T10:27:51;5.13;;;1.30;;
13855;SDS011;6998;53.608;9.958;2022-09-17T10:30:18;5.72;;;1.05;;
13855;SDS011;6998;53.608;9.958;2022-09-17T10:32:49;7.68;;;1.77;;
13855;SDS011;6998;53.608;9.958;2022-09-17T10:35:41;6.22;;;1.50;;
13855;SDS011;6998;53.608;9.958;2022-09-17T10:38:25;4.78;;;1.23;;
13855;SDS011;6998;53.608;9.958;2022-09-17T10:41:03;4.85;;;1.42;;
13855;SDS011;6998;53.608;9.958;2022-09-17T10:43:37;4.47;;;1.30;;
13855;SDS011;6998;53.608;9.958;2022-09-17T10:46:05;3.75;;;1.20;;
13855;SDS011;6998;53.608;9.958;2022-09-17T10:48:36;3.83;;;1.10;;
13855;SDS011;6998;53.608;9.958;2022-09-17T10:51:07;3.15;;;1.10;;
13855;SDS011;6998;53.608;9.958;2022-09-17T10:53:36;4.72;;;1.15;;
13855;SDS011;6998;53.608;9.958;2022-09-17T10:56:38;6.18;;;1.25;;
13855;SDS011;6998;53.608;9.958;2022-09-17T10:59:15;5.55;;;1.10;;
13855;SDS011;6998;53.608;9.958;2022-09-17T11:02:16;3.40;;;1.00;;
13855;SDS011;6998;53.608;9.958;2022-09-17T11:05:06;3.35;;;1.15;;
13855;SDS011;6998;53.608;9.958;2022-09-17T11:07:53;4.03;;;1.48;;
13855;SDS011;6998;53.608;9.958;2022-09-17T11:10:27;4.57;;;1.25;;
13855;SDS011;6998;53.608;9.958;2022-09-17T11:13:02;4.07;;;1.25;;
13855;SDS011;6998;53.608;9.958;2022-09-17T11:15:40;2.85;;;0.95;;
13855;SDS011;6998;53.608;9.958;2022-09-17T11:21:05;5.20;;;1.42;;
13855;SDS011;6998;53.608;9.958;2022-09-17T11:24:00;2.85;;;1.40;;
13855;SDS011;6998;53.608;9.958;2022-09-17T11:26:46;4.03;;;1.25;;
13855;SDS011;6998;53.608;9.958;2022-09-17T11:29:25;3.00;;;1.27;;
13855;SDS011;6998;53.608;9.958;2022-09-17T11:32:06;3.95;;;1.60;;
13855;SDS011;6998;53.608;9.958;2022-09-17T11:34:47;5.53;;;1.48;;
13855;SDS011;6998;53.608;9.958;2022-09-17T11:37:24;5.32;;;1.50;;
13855;SDS011;6998;53.608;9.958;2022-09-17T11:39:57;4.30;;;1.10;;
13855;SDS011;6998;53.608;9.958;2022-09-17T11:42:27;4.47;;;1.20;;
13855;SDS011;6998;53.608;9.958;2022-09-17T11:44:59;4.63;;;1.42;;
13855;SDS011;6998;53.608;9.958;2022-09-17T11:47:31;6.00;;;1.73;;
13855;SDS011;6998;53.608;9.958;2022-09-17T11:50:02;3.72;;;1.42;;
13855;SDS011;6998;53.608;9.958;2022-09-17T11:52:36;4.85;;;1.52;;
13855;SDS011;6998;53.608;9.958;2022-09-17T11:55:15;4.20;;;1.55;;
13855;SDS011;6998;53.608;9.958;2022-09-17T11:57:46;5.38;;;1.58;;
13855;SDS011;6998;53.608;9.958;2022-09-17T12:00:17;3.80;;;1.30;;
13855;SDS011;6998;53.608;9.958;2022-09-17T12:02:47;6.60;;;1.83;;
13855;SDS011;6998;53.608;9.958;2022-09-17T12:05:17;5.43;;;1.58;;
13855;SDS011;6998;53.608;9.958;2022-09-17T12:07:50;4.70;;;1.50;;
13855;SDS011;6998;53.608;9.958;2022-09-17T12:10:33;5.55;;;1.60;;
13855;SDS011;6998;53.608;9.958;2022-09-17T12:13:06;4.60;;;1.73;;
13855;SDS011;6998;53.608;9.958;2022-09-17T12:15:50;6.82;;;1.85;;
13855;SDS011;6998;53.608;9.958;2022-09-17T12:18:27;4.50;;;1.42;;
13855;SDS011;6998;53.608;9.958;2022-09-17T12:21:02;4.10;;;1.70;;
13855;SDS011;6998;53.608;9.958;2022-09-17T12:23:35;5.40;;;1.80;;
13855;SDS011;6998;53.608;9.958;2022-09-17T12:26:10;8.65;;;1.90;;
13855;SDS011;6998;53.608;9.958;2022-09-17T12:28:50;5.65;;;2.00;;
13855;SDS011;6998;53.608;9.958;2022-09-17T12:31:30;7.63;;;1.75;;
13855;SDS011;6998;53.608;9.958;2022-09-17T12:34:01;6.82;;;1.92;;
13855;SDS011;6998;53.608;9.958;2022-09-17T12:36:39;6.72;;;1.92;;
13855;SDS011;6998;53.608;9.958;2022-09-17T12:42:18;9.50;;;2.00;;
13855;SDS011;6998;53.608;9.958;2022-09-17T12:45:05;7.43;;;1.85;;
13855;SDS011;6998;53.608;9.958;2022-09-17T12:47:51;6.25;;;2.00;;
13855;SDS011;6998;53.608;9.958;2022-09-17T12:50:38;6.28;;;1.95;;
13855;SDS011;6998;53.608;9.958;2022-09-17T12:53:16;5.55;;;1.67;;
13855;SDS011;6998;53.608;9.958;2022-09-17T12:55:56;7.68;;;2.30;;
13855;SDS011;6998;53.608;9.958;2022-09-17T12:58:39;7.85;;;1.90;;
13855;SDS011;6998;53.608;9.958;2022-09-17T13:01:16;5.20;;;1.65;;
13855;SDS011;6998;53.608;9.958;2022-09-17T13:03:49;6.28;;;1.85;;
13855;SDS011;6998;53.608;9.958;2022-09-17T13:09:30;7.45;;;2.08;;
13855;SDS011;6998;53.608;9.958;2022-09-17T13:12:26;9.15;;;2.20;;
13855;SDS011;6998;53.608;9.958;2022-09-17T13:15:22;6.18;;;2.05;;
13855;SDS011;6998;53.608;9.958;2022-09-17T13:18:02;5.45;;;1.90;;
13855;SDS011;6998;53.608;9.958;2022-09-17T13:20:37;6.15;;;1.88;;
13855;SDS011;6998;53.608;9.958;2022-09-17T13:23:13;3.97;;;1.40;;
13855;SDS011;6998;53.608;9.958;2022-09-17T13:25:48;7.30;;;1.60;;
13855;SDS011;6998;53.608;9.958;2022-09-17T13:28:16;4.40;;;1.70;;
13855;SDS011;6998;53.608;9.958;2022-09-17T13:30:57;4.50;;;1.63;;
13855;SDS011;6998;53.608;9.958;2022-09-17T13:36:34;6.95;;;1.60;;
13855;SDS011;6998;53.608;9.958;2022-09-17T13:39:35;6.82;;;1.52;;
13855;SDS011;6998;53.608;9.958;2022-09-17T13:42:15;7.13;;;1.80;;
13855;SDS011;6998;53.608;9.958;2022-09-17T13:44:46;4.70;;;1.63;;
13855;SDS011;6998;53.608;9.958;2022-09-17T13:47:19;7.18;;;1.77;;
13855;SDS011;6998;53.608;9.958;2022-09-17T13:49:50;7.13;;;1.98;;
13855;SDS011;6998;53.608;9.958;2022-09-17T13:52:27;4.78;;;1.52;;
13855;SDS011;6998;53.608;9.958;2022-09-17T13:54:58;5.32;;;1.50;;
13855;SDS011;6998;53.608;9.958;2022-09-17T13:57:26;5.03;;;1.67;;
13855;SDS011;6998;53.608;9.958;2022-09-17T13:59:56;5.53;;;1.70;;
13855;SDS011;6998;53.608;9.958;2022-09-17T14:02:35;6.60;;;2.25;;
13855;SDS011;6998;53.608;9.958;2022-09-17T14:08:22;3.78;;;1.10;;
13855;SDS011;6998;53.608;9.958;2022-09-17T14:10:59;2.22;;;0.75;;
13855;SDS011;6998;53.608;9.958;2022-09-17T14:16:30;2.53;;;0.90;;
13855;SDS011;6998;53.608;9.958;2022-09-17T14:19:02;3.10;;;1.20;;
13855;SDS011;6998;53.608;9.958;2022-09-17T14:21:55;3.72;;;1.10;;
13855;SDS011;6998;53.608;9.958;2022-09-17T14:24:25;2.13;;;1.05;;
13855;SDS011;6998;53.608;9.958;2022-09-17T14:27:02;1.02;;;0.93;;
13855;SDS011;6998;53.608;9.958;2022-09-17T14:32:26;4.18;;;1.27;;
13855;SDS011;6998;53.608;9.958;2022-09-17T14:34:58;2.88;;;1.25;;
13855;SDS011;6998;53.608;9.958;2022-09-17T14:37:25;3.42;;;1.10;;
13855;SDS011;6998;53.608;9.958;2022-09-17T14:39:53;4.10;;;0.90;;
13855;SDS011;6998;53.608;9.958;2022-09-17T14:42:21;2.47;;;0.98;;
13855;SDS011;6998;53.608;9.958;2022-09-17T14:44:54;3.25;;;0.93;;
13855;SDS011;6998;53.608;9.958;2022-09-17T14:47:23;6.05;;;1.10;;
13855;SDS011;6998;53.608;9.958;2022-09-17T14:49:51;2.50;;;0.93;;
13855;SDS011;6998;53.608;9.958;2022-09-17T14:52:22;3.05;;;1.10;;
13855;SDS011;6998;53.608;9.958;2022-09-17T14:57:42;4.22;;;1.00;;
13855;SDS011;6998;53.608;9.958;2022-09-17T15:00:15;8.23;;;1.40;;
13855;SDS011;6998;53.608;9.958;2022-09-17T15:02:48;4.53;;;1.70;;
13855;SDS011;6998;53.608;9.958;2022-09-17T15:05:17;3.80;;;1.45;;
13855;SDS011;6998;53.608;9.958;2022-09-17T15:08:03;3.45;;;1.10;;
13855;SDS011;6998;53.608;9.958;2022-09-17T15:10:31;4.43;;;1.27;;
13855;SDS011;6998;53.608;9.958;2022-09-17T15:13:01;4.93;;;1.60;;
13855;SDS011;6998;53.608;9.958;2022-09-17T15:15:28;5.13;;;1.63;;
13855;SDS011;6998;53.608;9.958;2022-09-17T15:17:55;4.40;;;1.45;;
13855;SDS011;6998;53.608;9.958;2022-09-17T15:20:25;4.30;;;1.50;;
13855;SDS011;6998;53.608;9.958;2022-09-17T15:22:59;4.72;;;1.10;;
13855;SDS011;6998;53.608;9.958;2022-09-17T15:25:32;5.47;;;1.33;;
13855;SDS011;6998;53.608;9.958;2022-09-17T15:28:03;4.90;;;1.27;;
13855;SDS011;6998;53.608;9.958;2022-09-17T15:30:38;2.58;;;1.02;;
13855;SDS011;6998;53.608;9.958;2022-09-17T15:33:08;2.35;;;0.93;;
13855;SDS011;6998;53.608;9.958;2022-09-17T15:35:36;5.28;;;1.33;;
13855;SDS011;6998;53.608;9.958;2022-09-17T15:38:18;5.22;;;1.33;;
13855;SDS011;6998;53.608;9.958;2022-09-17T15:40:46;3.88;;;1.17;;
13855;SDS011;6998;53.608;9.958;2022-09-17T15:43:15;4.97;;;1.15;;
13855;SDS011;6998;53.608;9.958;2022-09-17T15:45:45;3.80;;;1.00;;
13855;SDS011;6998;53.608;9.958;2022-09-17T15:48:19;5.05;;;1.10;;
13855;SDS011;6998;53.608;9.958;2022-09-17T15:50:49;2.65;;;1.00;;
13855;SDS011;6998;53.608;9.958;2022-09-17T15:53:23;4.80;;;1.17;;